createdAt,value
2022-12-08T00:00:29.999Z,9.70
2022-12-08T00:02:57.414Z,15.60
2022-12-08T00:05:43.389Z,20.30
2022-12-08T00:08:29.867Z,10.43
2022-12-08T00:10:56.972Z,9.37
2022-12-08T00:13:24.215Z,9.70
2022-12-08T00:15:51.556Z,10.73
2022-12-08T00:18:18.664Z,14.90
2022-12-08T00:20:45.890Z,11.67
2022-12-08T00:23:13.054Z,16.03
2022-12-08T00:25:40.234Z,10.07
2022-12-08T00:28:07.361Z,13.57
2022-12-08T00:30:34.637Z,14.50
2022-12-08T00:33:01.745Z,13.07
2022-12-08T00:35:28.852Z,14.33
2022-12-08T00:38:00.567Z,16.00
2022-12-08T00:40:28.753Z,14.67
2022-12-08T00:42:55.980Z,15.23
2022-12-08T00:45:23.196Z,15.57
2022-12-08T00:47:50.409Z,14.27
2022-12-08T00:50:17.661Z,12.10
2022-12-08T00:52:44.763Z,10.83
2022-12-08T00:55:11.852Z,10.90
2022-12-08T00:57:38.936Z,14.27
2022-12-08T01:00:06.835Z,11.17
2022-12-08T01:02:34.479Z,10.37
2022-12-08T01:05:01.621Z,15.17
2022-12-08T01:07:28.786Z,11.07
2022-12-08T01:09:57.726Z,12.23
2022-12-08T01:12:25.155Z,12.00
2022-12-08T01:14:52.265Z,13.57
2022-12-08T01:17:19.414Z,11.67
2022-12-08T01:19:46.497Z,15.33
2022-12-08T01:22:13.740Z,12.57
2022-12-08T01:24:40.800Z,13.67
2022-12-08T01:27:07.925Z,16.23
2022-12-08T01:29:35.073Z,14.60
2022-12-08T01:32:02.236Z,16.83
2022-12-08T01:34:29.415Z,11.00
2022-12-08T01:36:56.517Z,14.53
2022-12-08T01:39:23.635Z,12.90
2022-12-08T01:41:50.735Z,13.57
2022-12-08T01:44:18.052Z,14.10
2022-12-08T01:46:46.115Z,18.40
2022-12-08T01:49:16.397Z,11.30
2022-12-08T01:51:54.018Z,10.40
2022-12-08T01:54:22.573Z,11.90
2022-12-08T01:56:56.104Z,18.13
2022-12-08T01:59:23.365Z,10.63
2022-12-08T02:01:50.545Z,12.13
2022-12-08T02:04:18.108Z,11.60
2022-12-08T02:06:46.341Z,12.50
2022-12-08T02:09:13.940Z,13.30
2022-12-08T02:11:41.001Z,11.33
2022-12-08T02:14:09.061Z,14.20
2022-12-08T02:16:42.066Z,12.23
2022-12-08T02:19:31.057Z,14.60
2022-12-08T02:22:01.563Z,14.13
2022-12-08T02:24:28.615Z,14.47
2022-12-08T02:27:05.367Z,10.40
2022-12-08T02:29:51.288Z,10.50
2022-12-08T02:32:21.552Z,10.57
2022-12-08T02:34:53.911Z,15.63
2022-12-08T02:37:38.747Z,11.93
2022-12-08T02:40:08.727Z,9.50
2022-12-08T02:42:38.855Z,13.20
2022-12-08T02:45:10.461Z,12.87
2022-12-08T02:47:38.608Z,14.77
2022-12-08T02:50:06.222Z,11.87
2022-12-08T02:52:33.518Z,9.87
2022-12-08T02:55:04.099Z,10.00
2022-12-08T02:57:43.252Z,11.63
2022-12-08T03:00:21.088Z,11.70
2022-12-08T03:02:48.179Z,11.93
2022-12-08T03:05:33.669Z,9.17
2022-12-08T03:08:09.495Z,10.70
2022-12-08T03:10:38.697Z,13.67
2022-12-08T03:13:21.681Z,12.40
2022-12-08T03:15:50.570Z,14.13
2022-12-08T03:18:19.445Z,11.63
2022-12-08T03:20:47.937Z,18.37
2022-12-08T03:23:16.833Z,18.87
2022-12-08T03:25:52.961Z,16.30
2022-12-08T03:28:20.177Z,17.73
2022-12-08T03:30:49.524Z,19.80
2022-12-08T03:33:19.665Z,24.13
2022-12-08T03:35:47.206Z,25.33
2022-12-08T03:38:16.139Z,19.47
2022-12-08T03:40:43.573Z,23.53
2022-12-08T03:43:10.786Z,19.90
2022-12-08T03:45:38.016Z,17.20
2022-12-08T03:48:05.202Z,18.90
2022-12-08T03:50:32.354Z,16.83
2022-12-08T03:52:59.453Z,18.97
2022-12-08T03:55:26.532Z,19.97
2022-12-08T03:57:53.625Z,20.13
2022-12-08T04:00:20.784Z,16.50
2022-12-08T04:02:47.999Z,18.43
2022-12-08T04:05:15.180Z,22.30
2022-12-08T04:07:42.308Z,19.63
2022-12-08T04:10:09.801Z,18.27
2022-12-08T04:12:36.889Z,18.93
2022-12-08T04:15:04.220Z,17.07
2022-12-08T04:17:31.312Z,17.80
2022-12-08T04:19:58.491Z,18.70
2022-12-08T04:22:25.560Z,21.97
2022-12-08T04:24:52.936Z,17.10
2022-12-08T04:27:20.005Z,17.10
2022-12-08T04:29:47.060Z,17.60
2022-12-08T04:32:14.232Z,19.80
2022-12-08T04:34:41.316Z,19.70
2022-12-08T04:37:08.507Z,17.97
2022-12-08T04:39:35.636Z,18.77
2022-12-08T04:42:02.729Z,21.27
2022-12-08T04:44:29.920Z,26.60
2022-12-08T04:46:57.114Z,32.07
2022-12-08T04:49:24.350Z,42.13
2022-12-08T04:51:51.422Z,43.47
2022-12-08T04:54:18.500Z,31.93
2022-12-08T04:56:45.712Z,36.80
2022-12-08T04:59:12.830Z,33.40
2022-12-08T05:01:40.133Z,28.20
2022-12-08T05:04:07.379Z,27.97
2022-12-08T05:06:34.478Z,32.67
2022-12-08T05:09:01.547Z,26.00
2022-12-08T05:11:28.662Z,23.13
2022-12-08T05:13:55.741Z,32.33
2022-12-08T05:16:23.146Z,33.13
2022-12-08T05:18:50.439Z,34.40
2022-12-08T05:21:17.547Z,31.17
2022-12-08T05:23:44.812Z,36.27
2022-12-08T05:26:11.899Z,40.53
2022-12-08T05:28:41.779Z,33.50
2022-12-08T05:31:10.297Z,38.07
2022-12-08T05:33:37.484Z,32.53
2022-12-08T05:36:04.596Z,35.73
2022-12-08T05:38:31.716Z,44.27
2022-12-08T05:40:58.800Z,35.70
2022-12-08T05:43:25.936Z,30.90
2022-12-08T05:45:53.156Z,37.17
2022-12-08T05:48:20.327Z,25.90
2022-12-08T05:50:48.356Z,31.83
2022-12-08T05:53:16.015Z,23.07
2022-12-08T05:55:43.308Z,29.70
2022-12-08T05:58:17.936Z,22.53
2022-12-08T06:00:45.435Z,29.73
2022-12-08T06:03:13.434Z,32.93
2022-12-08T06:05:44.625Z,32.40
2022-12-08T06:08:12.136Z,26.53
2022-12-08T06:10:43.686Z,31.73
2022-12-08T06:13:10.909Z,25.97
2022-12-08T06:15:38.722Z,28.83
2022-12-08T06:18:06.445Z,29.70
2022-12-08T06:20:33.643Z,29.37
2022-12-08T06:23:00.792Z,31.00
2022-12-08T06:25:27.918Z,27.50
2022-12-08T06:27:55.019Z,30.77
2022-12-08T06:30:22.188Z,37.37
2022-12-08T06:32:49.266Z,35.00
2022-12-08T06:35:16.392Z,45.47
2022-12-08T06:37:43.563Z,47.80
2022-12-08T06:40:10.939Z,38.37
2022-12-08T06:42:44.173Z,41.77
2022-12-08T06:45:12.116Z,37.17
2022-12-08T06:47:39.298Z,34.40
2022-12-08T06:50:07.618Z,34.53
2022-12-08T06:52:37.659Z,36.37
2022-12-08T06:55:08.467Z,30.90
2022-12-08T06:57:35.578Z,36.93
2022-12-08T07:00:03.333Z,45.67
2022-12-08T07:02:30.823Z,41.67
2022-12-08T07:04:58.012Z,39.43
2022-12-08T07:07:25.245Z,43.57
2022-12-08T07:09:52.367Z,39.17
2022-12-08T07:12:19.532Z,33.47
2022-12-08T07:14:46.652Z,40.57
2022-12-08T07:17:13.892Z,37.50
2022-12-08T07:19:41.099Z,34.73
2022-12-08T07:22:08.186Z,37.47
2022-12-08T07:24:35.331Z,33.17
2022-12-08T07:27:02.536Z,34.00
2022-12-08T07:29:29.693Z,39.40
2022-12-08T07:31:57.439Z,38.27
2022-12-08T07:34:24.599Z,39.20
2022-12-08T07:36:51.676Z,35.20
2022-12-08T07:39:18.809Z,37.67
2022-12-08T07:41:45.921Z,32.47
2022-12-08T07:44:13.042Z,34.80
2022-12-08T07:46:40.310Z,28.67
2022-12-08T07:49:07.440Z,29.10
2022-12-08T07:51:34.555Z,32.43
2022-12-08T07:54:01.676Z,35.10
2022-12-08T07:56:28.870Z,42.93
2022-12-08T07:58:55.959Z,46.67
2022-12-08T08:01:27.253Z,39.43
2022-12-08T08:03:55.366Z,47.53
2022-12-08T08:06:22.597Z,43.20
2022-12-08T08:08:49.803Z,35.90
2022-12-08T08:11:21.395Z,35.57
2022-12-08T08:13:49.045Z,38.73
2022-12-08T08:16:16.321Z,45.63
2022-12-08T08:18:43.817Z,39.10
2022-12-08T08:23:58.161Z,43.87
2022-12-08T08:26:25.295Z,42.13
2022-12-08T08:28:52.352Z,38.27
2022-12-08T08:31:19.464Z,36.17
2022-12-08T08:33:48.933Z,35.33
2022-12-08T08:36:16.055Z,33.20
2022-12-08T08:38:44.221Z,25.70
2022-12-08T08:41:11.808Z,26.83
2022-12-08T08:43:39.171Z,33.27
2022-12-08T08:46:08.916Z,27.87
2022-12-08T08:48:36.466Z,27.50
2022-12-08T08:51:11.026Z,28.73
2022-12-08T08:53:38.381Z,28.40
2022-12-08T08:56:12.549Z,31.93
2022-12-08T08:58:39.955Z,30.43
2022-12-08T09:01:07.212Z,31.80
2022-12-08T09:03:34.688Z,33.90
2022-12-08T09:06:01.920Z,34.30
2022-12-08T09:08:29.128Z,29.00
2022-12-08T09:10:56.334Z,32.20
2022-12-08T09:13:23.569Z,31.17
2022-12-08T09:15:50.849Z,30.87
2022-12-08T09:18:18.036Z,32.67
2022-12-08T09:20:45.270Z,32.37
2022-12-08T09:23:12.424Z,31.00
2022-12-08T09:25:39.501Z,33.10
2022-12-08T09:28:06.556Z,37.73
2022-12-08T09:30:33.719Z,37.40
2022-12-08T09:33:00.843Z,38.40
2022-12-08T09:35:27.966Z,38.00
2022-12-08T09:37:55.190Z,34.27
2022-12-08T09:40:23.535Z,42.87
2022-12-08T09:42:57.843Z,44.20
2022-12-08T09:45:27.416Z,27.33
2022-12-08T09:48:00.310Z,30.63
2022-12-08T09:50:36.055Z,36.83
2022-12-08T09:53:08.500Z,27.73
2022-12-08T09:55:45.210Z,29.07
2022-12-08T09:58:30.680Z,32.57
2022-12-08T10:00:57.969Z,32.67
2022-12-08T10:03:27.117Z,28.33
2022-12-08T10:06:03.911Z,29.57
2022-12-08T10:08:37.629Z,35.00
2022-12-08T10:11:09.720Z,38.57
2022-12-08T10:13:44.285Z,43.60
2022-12-08T10:16:29.735Z,39.53
2022-12-08T10:19:13.010Z,36.03
2022-12-08T10:21:41.083Z,37.77
2022-12-08T10:24:30.343Z,28.30
2022-12-08T10:26:57.956Z,33.90
2022-12-08T10:29:25.101Z,36.87
2022-12-08T10:31:52.346Z,37.07
2022-12-08T10:34:23.070Z,35.20
2022-12-08T10:36:53.390Z,28.33
2022-12-08T10:39:34.002Z,27.70
2022-12-08T10:42:18.485Z,30.67
2022-12-08T10:44:54.079Z,29.80
2022-12-08T10:47:22.095Z,30.03
2022-12-08T10:50:07.034Z,31.73
2022-12-08T10:52:39.015Z,38.40
2022-12-08T10:55:14.513Z,35.43
2022-12-08T10:57:41.875Z,44.23
2022-12-08T11:00:14.358Z,39.03
2022-12-08T11:02:56.076Z,33.03
2022-12-08T11:05:24.372Z,45.47
2022-12-08T11:07:53.184Z,46.43
2022-12-08T11:10:21.663Z,43.47
2022-12-08T11:12:50.544Z,38.37
2022-12-08T11:15:18.712Z,33.17
2022-12-08T11:17:52.188Z,36.10
2022-12-08T11:20:24.195Z,42.23
2022-12-08T11:22:55.915Z,40.53
2022-12-08T11:25:27.429Z,35.50
2022-12-08T11:27:57.344Z,34.57
2022-12-08T11:30:25.774Z,37.10
2022-12-08T11:32:57.345Z,34.73
2022-12-08T11:35:32.798Z,35.47
2022-12-08T11:38:20.475Z,31.00
2022-12-08T11:40:50.832Z,37.93
2022-12-08T11:43:36.035Z,29.47
2022-12-08T11:46:04.850Z,37.20
2022-12-08T11:48:41.999Z,30.97
2022-12-08T11:51:14.629Z,31.03
2022-12-08T11:54:00.299Z,30.40
2022-12-08T11:56:32.850Z,32.70
2022-12-08T11:59:02.377Z,38.97
2022-12-08T12:01:29.569Z,36.77
2022-12-08T12:04:02.692Z,36.13
2022-12-08T12:06:54.397Z,33.10
2022-12-08T12:09:32.100Z,39.63
2022-12-08T12:12:22.012Z,37.27
2022-12-08T12:15:07.707Z,40.13
2022-12-08T12:17:40.922Z,39.63
2022-12-08T12:20:26.316Z,37.70
2022-12-08T12:22:57.392Z,44.83
2022-12-08T12:25:26.623Z,38.13
2022-12-08T12:27:57.399Z,38.83
2022-12-08T12:30:26.403Z,36.10
2022-12-08T12:32:53.743Z,36.77
2022-12-08T12:35:27.178Z,39.40
2022-12-08T12:37:57.394Z,45.93
2022-12-08T12:40:26.816Z,37.17
2022-12-08T12:42:56.941Z,30.23
2022-12-08T12:45:26.724Z,30.33
2022-12-08T12:47:57.341Z,37.00
2022-12-08T12:50:33.855Z,33.27
2022-12-08T12:53:02.115Z,31.87
2022-12-08T12:55:49.445Z,34.63
2022-12-08T12:58:28.713Z,30.00
2022-12-08T13:01:11.479Z,30.97
2022-12-08T13:03:44.776Z,27.83
2022-12-08T13:06:14.725Z,28.20
2022-12-08T13:08:53.312Z,31.27
2022-12-08T13:11:20.841Z,35.63
2022-12-08T13:13:58.667Z,35.40
2022-12-08T13:16:26.953Z,43.07
2022-12-08T13:18:58.322Z,44.90
2022-12-08T13:21:31.886Z,83.90
2022-12-08T13:24:14.093Z,43.83
2022-12-08T13:26:45.702Z,29.30
2022-12-08T13:29:15.375Z,28.50
2022-12-08T13:31:55.623Z,25.17
2022-12-08T13:34:43.126Z,27.60
2022-12-08T13:37:16.033Z,79.47
2022-12-08T13:39:47.566Z,52.83
2022-12-08T13:42:26.976Z,47.40
2022-12-08T13:45:27.988Z,31.40
2022-12-08T13:48:30.157Z,64.50
2022-12-08T13:53:15.825Z,40.07
2022-12-08T13:57:12.873Z,40.87
2022-12-08T13:59:44.127Z,94.30
2022-12-08T14:02:18.665Z,55.27
2022-12-08T14:07:37.921Z,38.43
2022-12-08T14:10:08.259Z,43.17
2022-12-08T14:12:35.406Z,40.10
2022-12-08T14:15:06.091Z,50.03
2022-12-08T14:17:33.983Z,45.23
2022-12-08T14:20:03.774Z,48.00
2022-12-08T14:22:37.801Z,51.23
2022-12-08T14:25:06.804Z,46.87
2022-12-08T14:27:35.596Z,46.17
2022-12-08T14:30:03.890Z,39.57
2022-12-08T14:32:34.315Z,41.70
2022-12-08T14:35:07.891Z,34.20
2022-12-08T14:37:48.864Z,36.27
2022-12-08T14:40:23.050Z,50.00
2022-12-08T14:42:55.410Z,43.83
2022-12-08T14:45:22.718Z,43.27
2022-12-08T14:47:51.196Z,39.17
2022-12-08T14:50:36.480Z,39.63
2022-12-08T14:53:03.734Z,34.53
2022-12-08T14:55:37.929Z,53.17
2022-12-08T14:58:05.402Z,59.70
2022-12-08T15:00:32.747Z,52.67
2022-12-08T15:02:59.880Z,60.37
2022-12-08T15:05:31.007Z,56.47
2022-12-08T15:08:02.753Z,79.53
2022-12-08T15:10:39.762Z,75.07
2022-12-08T15:13:08.773Z,52.83
2022-12-08T15:15:51.447Z,47.37
2022-12-08T15:18:23.322Z,37.47
2022-12-08T15:20:56.336Z,37.80
2022-12-08T15:23:26.649Z,39.57
2022-12-08T15:25:54.622Z,61.57
2022-12-08T15:28:27.991Z,58.07
2022-12-08T15:30:57.374Z,58.43
2022-12-08T15:33:24.558Z,66.33
2022-12-08T15:35:52.193Z,43.30
2022-12-08T15:38:21.555Z,58.90
2022-12-08T15:40:48.730Z,52.77
2022-12-08T15:43:15.956Z,42.20
2022-12-08T15:45:56.295Z,45.10
2022-12-08T15:48:27.187Z,54.07
2022-12-08T15:50:54.986Z,46.70
2022-12-08T15:53:22.385Z,50.60
2022-12-08T15:56:18.899Z,45.03
2022-12-08T15:58:55.264Z,46.07
2022-12-08T16:01:23.800Z,45.37
2022-12-08T16:09:25.620Z,59.30
2022-12-08T16:12:11.387Z,52.63
2022-12-08T16:17:27.463Z,45.43
2022-12-08T16:19:54.981Z,48.20
2022-12-08T16:25:18.847Z,68.87
2022-12-08T16:28:23.376Z,55.00
2022-12-08T16:30:34.887Z,70.97
2022-12-08T16:33:02.371Z,60.27
2022-12-08T16:35:29.793Z,71.33
2022-12-08T16:37:57.190Z,61.33
2022-12-08T16:40:24.654Z,59.87
2022-12-08T16:42:51.770Z,64.13
2022-12-08T16:45:28.178Z,57.90
2022-12-08T16:47:56.675Z,49.60
2022-12-08T16:50:25.176Z,40.60
2022-12-08T16:52:56.874Z,45.17
2022-12-08T16:55:24.060Z,40.73
2022-12-08T16:57:51.240Z,50.73
2022-12-08T17:00:20.045Z,48.27
2022-12-08T17:02:47.520Z,81.93
2022-12-08T17:05:15.888Z,70.77
2022-12-08T17:07:43.514Z,45.57
2022-12-08T17:10:12.062Z,41.43
2022-12-08T17:12:39.162Z,54.57
2022-12-08T17:15:10.968Z,55.00
2022-12-08T17:17:39.372Z,44.93
2022-12-08T17:20:08.498Z,44.50
2022-12-08T17:22:36.220Z,58.63
2022-12-08T17:25:04.080Z,59.30
2022-12-08T17:27:31.243Z,47.73
2022-12-08T17:29:58.436Z,43.67
2022-12-08T17:32:25.804Z,41.60
2022-12-08T17:34:53.331Z,42.80
2022-12-08T17:37:20.451Z,50.00
2022-12-08T17:39:47.599Z,47.33
2022-12-08T17:42:14.730Z,44.20
2022-12-08T17:44:41.907Z,37.93
2022-12-08T17:47:09.486Z,39.37
2022-12-08T17:49:36.624Z,46.77
2022-12-08T17:52:05.139Z,47.40
2022-12-08T17:54:32.344Z,54.97
2022-12-08T17:56:59.776Z,44.77
2022-12-08T17:59:27.917Z,41.03
2022-12-08T18:01:55.978Z,39.07
2022-12-08T18:04:23.889Z,38.87
2022-12-08T18:06:51.213Z,33.70
2022-12-08T18:09:18.393Z,34.27
2022-12-08T18:11:46.413Z,31.50
2022-12-08T18:14:14.277Z,35.97
2022-12-08T18:16:42.947Z,33.00
2022-12-08T18:19:10.531Z,30.30
2022-12-08T18:21:37.985Z,37.93
2022-12-08T18:24:05.289Z,31.17
2022-12-08T18:26:32.441Z,30.60
2022-12-08T18:28:59.954Z,30.03
2022-12-08T18:31:27.313Z,32.87
2022-12-08T18:33:54.891Z,33.37
2022-12-08T18:36:23.521Z,31.07
2022-12-08T18:38:51.180Z,32.80
2022-12-08T18:41:19.640Z,38.77
2022-12-08T18:43:47.089Z,39.53
2022-12-08T18:46:15.241Z,40.17
2022-12-08T18:48:46.204Z,38.53
2022-12-08T18:51:14.441Z,40.63
2022-12-08T18:53:41.962Z,42.20
2022-12-08T18:56:09.501Z,42.40
2022-12-08T18:58:36.604Z,50.67
2022-12-08T19:01:03.873Z,41.50
2022-12-08T19:03:31.056Z,42.90
2022-12-08T19:06:04.943Z,44.67
2022-12-08T19:08:32.178Z,37.97
2022-12-08T19:10:59.451Z,47.77
2022-12-08T19:13:27.367Z,57.57
2022-12-08T19:15:54.757Z,48.73
2022-12-08T19:18:21.953Z,53.43
2022-12-08T19:20:49.105Z,51.17
2022-12-08T19:23:16.645Z,39.13
2022-12-08T19:25:43.809Z,40.00
2022-12-08T19:28:10.939Z,36.67
2022-12-08T19:30:38.160Z,43.80
2022-12-08T19:33:05.304Z,42.60
2022-12-08T19:35:32.516Z,27.37
2022-12-08T19:37:59.648Z,19.20
2022-12-08T19:40:45.655Z,17.53
2022-12-08T19:43:32.704Z,17.00
2022-12-08T19:45:59.978Z,15.43
2022-12-08T19:48:27.184Z,14.63
2022-12-08T19:50:54.272Z,11.90
2022-12-08T19:53:21.470Z,13.03
2022-12-08T19:55:48.609Z,15.37
2022-12-08T19:58:15.917Z,13.90
2022-12-08T20:00:43.356Z,15.83
2022-12-08T20:03:11.852Z,16.80
2022-12-08T20:05:40.748Z,18.07
2022-12-08T20:08:08.155Z,14.10
2022-12-08T20:10:37.659Z,13.50
2022-12-08T20:13:24.370Z,13.97
2022-12-08T20:15:51.726Z,13.13
2022-12-08T20:18:18.962Z,14.70
2022-12-08T20:20:46.681Z,13.33
2022-12-08T20:23:14.560Z,14.90
2022-12-08T20:25:42.826Z,17.97
2022-12-08T20:28:10.308Z,15.13
2022-12-08T20:30:41.455Z,18.50
2022-12-08T20:33:08.734Z,12.90
2022-12-08T20:35:35.925Z,16.37
2022-12-08T20:38:03.047Z,15.80
2022-12-08T20:40:30.192Z,15.67
2022-12-08T20:42:57.342Z,14.60
2022-12-08T20:45:24.562Z,15.07
2022-12-08T20:47:51.729Z,14.47
2022-12-08T20:50:19.029Z,13.23
2022-12-08T20:52:46.341Z,12.00
2022-12-08T20:55:13.474Z,13.33
2022-12-08T20:57:40.750Z,16.63
2022-12-08T21:00:08.593Z,24.80
2022-12-08T21:02:37.614Z,19.50
2022-12-08T21:05:07.553Z,19.97
2022-12-08T21:07:35.125Z,21.10
2022-12-08T21:10:03.990Z,25.20
2022-12-08T21:12:32.297Z,23.73
2022-12-08T21:14:59.874Z,21.30
2022-12-08T21:17:27.231Z,17.50
2022-12-08T21:19:54.562Z,28.83
2022-12-08T21:22:21.784Z,40.23
2022-12-08T21:24:49.124Z,67.30
2022-12-08T21:27:16.423Z,55.57
2022-12-08T21:29:43.689Z,80.93
2022-12-08T21:32:10.925Z,80.83
2022-12-08T21:34:38.311Z,88.67
2022-12-08T21:37:05.595Z,61.53
2022-12-08T21:39:32.810Z,26.40
2022-12-08T21:42:21.497Z,16.70
2022-12-08T21:44:49.990Z,18.50
2022-12-08T21:47:17.309Z,14.57
2022-12-08T21:49:44.728Z,15.53
2022-12-08T21:52:11.993Z,17.80
2022-12-08T21:54:39.312Z,25.40
2022-12-08T21:57:06.563Z,26.07
2022-12-08T21:59:33.755Z,28.57
2022-12-08T22:02:01.403Z,26.03
2022-12-08T22:04:28.711Z,22.33
2022-12-08T22:06:56.070Z,19.57
2022-12-08T22:09:23.288Z,15.93
2022-12-08T22:11:50.544Z,23.47
2022-12-08T22:14:17.869Z,19.13
2022-12-08T22:16:45.290Z,18.97
2022-12-08T22:19:12.777Z,18.40
2022-12-08T22:21:39.984Z,15.47
2022-12-08T22:24:07.192Z,17.77
2022-12-08T22:26:34.508Z,25.13
2022-12-08T22:29:01.753Z,25.03
2022-12-08T22:31:29.231Z,27.73
2022-12-08T22:33:56.514Z,19.33
2022-12-08T22:36:24.709Z,18.43
2022-12-08T22:38:52.393Z,17.50
2022-12-08T22:41:19.652Z,16.50
2022-12-08T22:43:47.611Z,16.80
2022-12-08T22:46:19.207Z,16.67
2022-12-08T22:48:46.969Z,14.43
2022-12-08T22:51:14.694Z,14.60
2022-12-08T22:53:42.393Z,17.87
2022-12-08T22:56:11.170Z,23.57
2022-12-08T22:58:39.090Z,17.97
2022-12-08T23:01:06.665Z,19.53
2022-12-08T23:03:34.762Z,19.23
2022-12-08T23:06:03.009Z,22.57
2022-12-08T23:08:30.346Z,22.20
2022-12-08T23:10:58.405Z,27.20
2022-12-08T23:13:25.642Z,24.20
2022-12-08T23:15:52.738Z,22.03
2022-12-08T23:18:20.017Z,22.90
2022-12-08T23:20:47.775Z,26.33
2022-12-08T23:23:15.439Z,22.70
2022-12-08T23:25:43.299Z,24.40
2022-12-08T23:28:11.310Z,34.47
2022-12-08T23:30:41.854Z,28.17
2022-12-08T23:33:09.246Z,23.03
2022-12-08T23:35:36.582Z,28.53
2022-12-08T23:38:03.887Z,29.00
2022-12-08T23:40:31.079Z,28.40
2022-12-08T23:42:58.309Z,25.37
2022-12-08T23:45:25.798Z,28.27
2022-12-08T23:47:53.179Z,30.00
2022-12-08T23:50:20.327Z,22.10
2022-12-08T23:52:47.767Z,26.03
2022-12-08T23:55:15.027Z,23.67
2022-12-08T23:57:42.706Z,23.67
